Time;durP1;ratioP1;P1;durP2;ratioP2;P2;SDS_P1;SDS_P2;PMS_P1;PMS_P2;Temp;Humidity;BMP_temperature;BMP_pressure;BME280_temperature;BME280_humidity;BME280_pressure;Samples;Min_cycle;Max_cycle;Signal;HPM_P1;HPM_P2
2022/08/07 00:00:14;;;;;;;8.45;6.25;;;11.90;99.90;;;;;;5051700;28;20087;-82
2022/08/07 00:02:59;;;;;;;10.25;7.10;;;11.90;99.90;;;;;;5051810;28;20059;-82
2022/08/07 00:05:43;;;;;;;9.77;7.25;;;11.90;99.90;;;;;;5051208;28;20079;-82
2022/08/07 00:08:28;;;;;;;12.27;7.45;;;11.90;99.90;;;;;;5052084;28;20048;-82
2022/08/07 00:11:12;;;;;;;9.20;7.22;;;11.80;99.90;;;;;;5050450;28;20274;-82
2022/08/07 00:13:57;;;;;;;9.82;7.32;;;11.80;99.90;;;;;;5051559;28;20039;-82
2022/08/07 00:16:41;;;;;;;10.25;7.68;;;11.80;99.90;;;;;;5052053;28;20047;-82
2022/08/07 00:19:27;;;;;;;8.52;6.90;;;11.80;99.90;;;;;;5051994;28;20036;-82
2022/08/07 00:22:11;;;;;;;8.55;6.65;;;11.70;99.90;;;;;;5051404;28;20104;-81
2022/08/07 00:24:55;;;;;;;10.40;6.53;;;11.80;99.90;;;;;;5051933;28;20107;-86
2022/08/07 00:27:39;;;;;;;7.80;6.18;;;11.80;99.90;;;;;;5052039;28;20166;-81
2022/08/07 00:30:24;;;;;;;9.98;7.07;;;11.70;99.90;;;;;;5051800;28;20553;-82
2022/08/07 00:33:08;;;;;;;9.80;7.90;;;11.60;99.90;;;;;;5051446;28;20068;-82
2022/08/07 00:35:56;;;;;;;8.32;6.65;;;11.60;99.90;;;;;;5051769;28;20108;-81
2022/08/07 00:38:40;;;;;;;10.43;6.97;;;11.60;99.90;;;;;;5051833;28;20106;-81
2022/08/07 00:41:29;;;;;;;11.40;6.75;;;11.60;99.90;;;;;;5051986;28;20043;-82
2022/08/07 00:44:14;;;;;;;11.20;8.10;;;11.60;99.90;;;;;;5051509;28;20116;-81
2022/08/07 00:46:58;;;;;;;10.00;7.90;;;11.60;99.90;;;;;;5050436;28;20044;-85
2022/08/07 00:49:42;;;;;;;10.50;7.93;;;11.50;99.90;;;;;;5050657;28;20086;-82
2022/08/07 00:52:26;;;;;;;;;;;11.50;99.90;;;;;;5050994;28;20048;-82
2022/08/07 00:55:10;;;;;;;9.55;7.10;;;11.50;99.90;;;;;;5051369;28;19919;-82
2022/08/07 00:57:54;;;;;;;10.27;7.32;;;11.50;99.90;;;;;;5051844;28;20459;-81
2022/08/07 01:00:38;;;;;;;8.90;6.75;;;11.50;99.90;;;;;;5051670;28;20047;-81
2022/08/07 01:03:22;;;;;;;10.00;7.35;;;11.40;99.90;;;;;;5051021;28;20560;-81
2022/08/07 01:06:07;;;;;;;8.35;5.88;;;11.30;99.90;;;;;;5051302;28;20048;-82
2022/08/07 01:08:51;;;;;;;8.85;6.30;;;11.40;99.90;;;;;;5050688;28;20048;-81
2022/08/07 01:11:36;;;;;;;7.95;5.47;;;11.40;99.90;;;;;;5051449;28;20140;-81
2022/08/07 01:14:22;;;;;;;9.98;6.00;;;11.40;99.90;;;;;;5051122;28;20120;-81
2022/08/07 01:17:06;;;;;;;7.82;5.95;;;11.40;99.90;;;;;;5050904;28;20036;-82
2022/08/07 01:19:55;;;;;;;7.90;6.28;;;11.40;99.90;;;;;;5062512;28;20531;-82
2022/08/07 01:22:40;;;;;;;8.75;6.65;;;11.40;99.90;;;;;;5071466;28;20043;-82
2022/08/07 01:25:25;;;;;;;9.48;6.78;;;11.40;99.90;;;;;;5055876;28;20048;-82
2022/08/07 01:28:09;;;;;;;8.45;6.35;;;11.30;99.90;;;;;;5069790;28;20090;-83
2022/08/07 01:30:55;;;;;;;9.77;6.38;;;11.30;99.90;;;;;;5071446;28;20043;-83
2022/08/07 01:33:39;;;;;;;10.75;7.13;;;11.30;99.90;;;;;;5070331;28;20035;-82
2022/08/07 01:36:25;;;;;;;7.90;6.03;;;11.30;99.90;;;;;;5073578;28;20452;-82
2022/08/07 01:39:10;;;;;;;8.57;6.05;;;11.20;99.90;;;;;;5073550;28;20043;-82
2022/08/07 01:41:55;;;;;;;7.57;6.18;;;11.20;99.90;;;;;;5073802;28;20043;-81
2022/08/07 01:44:40;;;;;;;10.40;7.55;;;11.20;99.90;;;;;;5074782;28;20109;-81
2022/08/07 01:47:25;;;;;;;9.18;6.97;;;11.10;99.90;;;;;;5074082;28;20040;-82
2022/08/07 01:50:09;;;;;;;10.90;6.80;;;11.20;99.90;;;;;;5059668;28;20071;-87
2022/08/07 01:52:56;;;;;;;8.02;6.57;;;11.20;99.90;;;;;;5051414;28;20087;-82
2022/08/07 01:55:50;;;;;;;9.55;6.95;;;11.10;99.90;;;;;;5074390;28;20531;-82
2022/08/07 01:58:38;;;;;;;;;;;11.10;99.90;;;;;;5073687;28;20165;-82
2022/08/07 02:01:33;;;;;;;11.32;7.03;;;11.00;99.90;;;;;;5073993;28;19915;-82
2022/08/07 02:04:25;;;;;;;9.48;6.93;;;11.00;99.90;;;;;;5072728;28;20451;-82
2022/08/07 02:07:13;;;;;;;10.70;7.28;;;10.90;99.90;;;;;;5074493;28;20062;-81
2022/08/07 02:09:59;;;;;;;9.50;6.65;;;10.90;99.90;;;;;;5074380;28;20097;-81
2022/08/07 02:12:45;;;;;;;11.38;7.15;;;10.90;99.90;;;;;;5074112;28;20405;-81
2022/08/07 02:15:30;;;;;;;11.23;7.45;;;10.90;99.90;;;;;;5073668;28;20044;-82
2022/08/07 02:18:15;;;;;;;10.05;7.43;;;10.90;99.90;;;;;;5072852;28;20051;-87
2022/08/07 02:21:02;;;;;;;9.60;7.10;;;10.80;99.90;;;;;;5074005;28;20493;-81
2022/08/07 02:23:47;;;;;;;11.32;7.40;;;10.80;99.90;;;;;;5074149;28;20459;-81
2022/08/07 02:26:34;;;;;;;11.10;7.72;;;10.80;99.90;;;;;;5073184;28;20097;-82
2022/08/07 02:29:19;;;;;;;11.65;8.25;;;10.80;99.90;;;;;;5073542;28;20043;-82
2022/08/07 02:32:05;;;;;;;13.48;8.18;;;10.80;99.90;;;;;;5072800;28;20141;-81
2022/08/07 02:34:50;;;;;;;11.00;7.65;;;10.70;99.90;;;;;;5073806;28;20051;-82
2022/08/07 02:37:38;;;;;;;10.82;8.15;;;10.70;99.90;;;;;;5073313;28;20059;-81
2022/08/07 02:40:24;;;;;;;11.18;7.55;;;10.70;99.90;;;;;;5072338;28;20120;-82
2022/08/07 02:43:09;;;;;;;8.85;7.10;;;10.70;99.90;;;;;;5073305;28;20047;-82
2022/08/07 02:45:56;;;;;;;11.70;7.85;;;10.70;99.90;;;;;;5072567;28;20047;-81
2022/08/07 02:48:40;;;;;;;9.57;6.85;;;10.70;99.90;;;;;;5071930;28;20546;-82
2022/08/07 02:51:26;;;;;;;10.02;7.18;;;10.70;99.90;;;;;;5072981;28;20094;-82
2022/08/07 02:54:11;;;;;;;9.73;6.88;;;10.70;99.90;;;;;;5066083;28;20079;-81
2022/08/07 02:56:59;;;;;;;10.20;7.15;;;10.70;99.90;;;;;;5068395;28;20086;-81
2022/08/07 02:59:47;;;;;;;10.25;6.72;;;10.60;99.90;;;;;;5073002;28;20094;-82
2022/08/07 03:02:34;;;;;;;9.43;7.07;;;10.60;99.90;;;;;;5072815;28;20039;-82
2022/08/07 03:05:19;;;;;;;11.00;7.65;;;10.60;99.90;;;;;;5073152;28;20491;-81
2022/08/07 03:08:04;;;;;;;10.63;7.20;;;10.60;99.90;;;;;;5073236;28;20061;-81
2022/08/07 03:10:49;;;;;;;10.30;7.40;;;10.60;99.90;;;;;;5072810;28;20055;-81
2022/08/07 03:13:33;;;;;;;8.20;6.43;;;10.60;99.90;;;;;;5072618;28;20488;-81
2022/08/07 03:16:19;;;;;;;8.48;6.63;;;10.60;99.90;;;;;;5073198;28;20067;-81
2022/08/07 03:19:04;;;;;;;8.68;7.25;;;10.60;99.90;;;;;;5071807;28;20102;-81
2022/08/07 03:21:49;;;;;;;9.98;7.30;;;10.50;99.90;;;;;;5072952;28;20082;-81
2022/08/07 03:24:34;;;;;;;8.93;6.40;;;10.50;99.90;;;;;;5072109;28;20035;-82
2022/08/07 03:27:20;;;;;;;9.82;6.72;;;10.50;99.90;;;;;;5072744;28;20407;-81
2022/08/07 03:30:04;;;;;;;10.35;6.47;;;10.50;99.90;;;;;;5071678;28;20036;-81
2022/08/07 03:32:52;;;;;;;10.30;7.00;;;10.50;99.90;;;;;;5071396;28;20139;-81
2022/08/07 03:35:39;;;;;;;9.55;7.05;;;10.50;99.90;;;;;;5072237;28;20099;-82
2022/08/07 03:38:23;;;;;;;9.90;7.82;;;10.50;99.90;;;;;;5072485;28;20078;-81
2022/08/07 03:41:09;;;;;;;12.40;7.30;;;10.50;99.90;;;;;;5072641;28;20120;-81
2022/08/07 03:43:54;;;;;;;12.15;7.50;;;10.40;99.90;;;;;;5072534;28;20040;-81
2022/08/07 03:46:40;;;;;;;13.35;8.20;;;10.40;99.90;;;;;;5070772;28;20507;-81
2022/08/07 03:49:25;;;;;;;14.32;8.52;;;10.40;99.90;;;;;;5072609;28;20040;-81
2022/08/07 03:52:11;;;;;;;9.93;7.45;;;10.40;99.90;;;;;;5072223;28;20043;-81
2022/08/07 03:54:59;;;;;;;11.13;8.30;;;10.40;99.90;;;;;;5057375;28;20098;-81
2022/08/07 03:57:45;;;;;;;12.30;7.55;;;10.40;99.90;;;;;;5071350;28;20039;-81
2022/08/07 04:00:31;;;;;;;11.00;7.78;;;10.30;99.90;;;;;;5071824;28;20104;-86
2022/08/07 04:03:16;;;;;;;10.70;7.70;;;10.40;99.90;;;;;;5072094;28;20178;-81
2022/08/07 04:06:00;;;;;;;9.75;7.25;;;10.40;99.90;;;;;;5071318;28;20043;-81
2022/08/07 04:08:45;;;;;;;11.80;8.20;;;10.40;99.90;;;;;;5071445;28;20081;-81
2022/08/07 04:11:31;;;;;;;9.93;7.30;;;10.30;99.90;;;;;;5072031;28;20457;-86
2022/08/07 04:14:16;;;;;;;9.20;6.68;;;10.20;99.90;;;;;;5072033;28;20479;-81
2022/08/07 04:17:00;;;;;;;11.23;7.13;;;10.30;99.90;;;;;;5071315;28;20040;-82
2022/08/07 04:19:45;;;;;;;9.77;6.90;;;10.30;99.90;;;;;;5071692;28;20040;-82
2022/08/07 04:22:30;;;;;;;10.95;7.25;;;10.30;99.90;;;;;;5071991;28;20598;-82
2022/08/07 04:25:14;;;;;;;9.02;7.05;;;10.40;99.90;;;;;;5072176;28;20048;-81
2022/08/07 04:27:59;;;;;;;9.13;6.72;;;10.30;99.90;;;;;;5071900;28;20044;-81
2022/08/07 04:30:47;;;;;;;10.23;6.53;;;10.40;99.90;;;;;;5070527;28;20451;-82
2022/08/07 04:33:33;;;;;;;8.95;7.10;;;10.40;99.90;;;;;;5071878;28;20086;-81
2022/08/07 04:36:18;;;;;;;10.30;6.72;;;10.40;99.90;;;;;;5071783;28;20059;-82
2022/08/07 04:39:04;;;;;;;10.13;6.53;;;10.40;99.90;;;;;;5063278;28;20083;-81
2022/08/07 04:41:48;;;;;;;10.27;6.53;;;10.40;99.90;;;;;;5068855;28;20159;-82
2022/08/07 04:44:32;;;;;;;;;;;10.40;99.90;;;;;;5060298;28;20040;-81
2022/08/07 04:47:27;;;;;;;9.05;6.32;;;10.40;99.90;;;;;;5045461;28;19958;-81
2022/08/07 04:50:37;;;;;;;10.55;7.10;;;10.50;99.90;;;;;;5071710;28;20071;-82
2022/08/07 04:53:33;;;;;;;10.25;7.63;;;10.50;99.90;;;;;;5071583;28;20128;-82
2022/08/07 04:56:23;;;;;;;9.75;7.07;;;10.60;99.90;;;;;;5071884;28;20086;-81
2022/08/07 04:59:11;;;;;;;11.18;7.32;;;10.50;99.90;;;;;;5044267;28;20396;-81
2022/08/07 05:02:07;;;;;;;13.32;7.18;;;10.70;99.90;;;;;;5070978;28;20485;-81
2022/08/07 05:05:10;;;;;;;10.43;6.93;;;10.70;99.90;;;;;;5071251;28;20051;-81
2022/08/07 05:08:13;;;;;;;8.75;7.32;;;10.80;99.90;;;;;;5071063;28;20625;-81
2022/08/07 05:11:08;;;;;;;10.70;7.05;;;10.90;99.90;;;;;;5066611;28;20516;-81
2022/08/07 05:13:59;;;;;;;10.55;7.75;;;11.00;99.90;;;;;;5070443;28;20044;-81
2022/08/07 05:16:46;;;;;;;10.98;6.47;;;11.10;99.90;;;;;;5074878;28;20040;-81
2022/08/07 05:19:39;;;;;;;11.20;6.82;;;11.20;99.90;;;;;;5074410;28;20119;-81
2022/08/07 05:22:24;;;;;;;9.52;6.70;;;11.30;99.90;;;;;;5075130;28;20560;-81
2022/08/07 05:25:10;;;;;;;8.77;6.50;;;11.30;99.90;;;;;;5074234;28;20400;-81
2022/08/07 05:27:56;;;;;;;8.85;6.60;;;11.40;99.90;;;;;;5074297;28;20392;-81
2022/08/07 05:30:42;;;;;;;10.55;6.20;;;11.50;99.90;;;;;;5067116;28;20192;-81
2022/08/07 05:33:29;;;;;;;9.23;6.45;;;11.60;99.90;;;;;;5061953;28;20082;-81
2022/08/07 05:36:13;;;;;;;10.18;7.47;;;11.60;99.90;;;;;;5054915;28;20453;-81
2022/08/07 05:38:59;;;;;;;9.68;7.13;;;11.70;99.90;;;;;;5054421;28;20043;-80
2022/08/07 05:41:46;;;;;;;9.85;6.80;;;11.80;99.90;;;;;;5051749;28;20541;-85
2022/08/07 05:44:34;;;;;;;8.77;6.70;;;11.90;99.90;;;;;;5053882;28;20545;-82
2022/08/07 05:47:18;;;;;;;10.75;7.18;;;12.00;99.90;;;;;;5053796;28;20040;-82
2022/08/07 05:50:04;;;;;;;10.30;7.45;;;12.10;99.90;;;;;;5048673;28;20071;-83
2022/08/07 05:52:48;;;;;;;10.27;7.78;;;12.30;99.90;;;;;;5054307;28;20064;-88
2022/08/07 05:55:34;;;;;;;12.48;8.32;;;12.40;99.90;;;;;;5053772;28;20075;-83
2022/08/07 05:58:19;;;;;;;11.23;7.57;;;12.50;99.90;;;;;;5054344;28;20067;-84
2022/08/07 06:01:05;;;;;;;12.60;7.90;;;12.70;99.90;;;;;;5042051;28;20397;-83
2022/08/07 06:03:54;;;;;;;12.07;7.53;;;12.80;99.90;;;;;;5082982;28;20118;-90
2022/08/07 06:06:39;;;;;;;13.80;8.10;;;13.00;99.90;;;;;;5046781;28;20052;-85
2022/08/07 06:09:23;;;;;;;10.70;8.20;;;13.10;99.90;;;;;;5054446;28;20496;-83
2022/08/07 06:12:08;;;;;;;10.63;8.00;;;13.30;99.90;;;;;;5053219;28;20103;-83
2022/08/07 06:14:53;;;;;;;12.73;9.13;;;13.40;99.90;;;;;;5053118;28;20063;-83
2022/08/07 06:17:38;;;;;;;12.57;8.63;;;13.60;99.90;;;;;;5054370;28;20094;-87
2022/08/07 06:20:23;;;;;;;12.75;9.15;;;13.70;99.90;;;;;;5054351;28;20032;-83
2022/08/07 06:23:08;;;;;;;11.70;8.95;;;13.90;99.90;;;;;;5054005;28;20040;-83
2022/08/07 06:25:53;;;;;;;13.98;9.45;;;14.10;99.90;;;;;;5054063;28;20104;-90
2022/08/07 06:28:48;;;;;;;12.57;9.25;;;14.30;99.90;;;;;;5041608;28;20496;-83
2022/08/07 06:31:32;;;;;;;10.30;8.00;;;14.50;99.90;;;;;;5056216;28;20051;-84
2022/08/07 06:34:16;;;;;;;11.60;8.52;;;14.60;99.90;;;;;;5051841;28;20543;-84
2022/08/07 06:37:00;;;;;;;12.85;8.40;;;14.80;99.90;;;;;;5038919;28;20048;-83
2022/08/07 06:39:44;;;;;;;10.18;8.20;;;15.00;99.90;;;;;;5053987;28;20539;-82
2022/08/07 06:42:36;;;;;;;13.55;8.15;;;15.10;99.90;;;;;;5042020;28;20048;-82
2022/08/07 06:45:22;;;;;;;9.88;7.30;;;15.30;99.90;;;;;;5052378;28;20040;-83
2022/08/07 06:48:06;;;;;;;11.88;7.18;;;15.40;99.90;;;;;;5052126;28;20492;-81
2022/08/07 06:50:53;;;;;;;9.35;6.97;;;15.60;99.90;;;;;;5052556;28;20052;-84
2022/08/07 06:53:39;;;;;;;10.98;7.32;;;15.70;99.90;;;;;;5038513;28;20478;-82
2022/08/07 06:56:39;;;;;;;7.75;6.10;;;15.90;99.90;;;;;;5052445;28;20040;-83
2022/08/07 06:59:30;;;;;;;10.45;6.88;;;16.00;99.90;;;;;;5053403;28;20107;-83
2022/08/07 07:02:20;;;;;;;8.02;6.40;;;16.10;99.90;;;;;;5052624;28;20040;-82
2022/08/07 07:05:05;;;;;;;8.45;7.03;;;16.30;99.90;;;;;;5051593;28;20523;-82
2022/08/07 07:07:49;;;;;;;8.10;5.82;;;16.40;99.90;;;;;;5053245;28;20082;-84
2022/08/07 07:10:34;;;;;;;7.57;5.82;;;16.60;99.90;;;;;;5051782;28;20099;-83
2022/08/07 07:13:32;;;;;;;9.77;5.53;;;16.70;99.90;;;;;;5052626;28;20067;-82
2022/08/07 07:16:21;;;;;;;6.82;4.72;;;16.90;99.90;;;;;;5052638;28;20035;-82
2022/08/07 07:19:07;;;;;;;7.30;5.22;;;17.10;99.90;;;;;;5052386;28;20036;-81
2022/08/07 07:21:54;;;;;;;7.70;5.20;;;17.20;99.90;;;;;;5052989;28;20130;-81
2022/08/07 07:24:40;;;;;;;7.32;4.93;;;17.40;99.90;;;;;;5052261;28;20044;-81
2022/08/07 07:27:29;;;;;;;5.93;4.05;;;17.60;99.90;;;;;;5048591;28;20059;-82
2022/08/07 07:30:13;;;;;;;4.40;3.85;;;18.40;99.90;;;;;;5061207;28;20116;-80
2022/08/07 07:33:01;;;;;;;5.65;3.63;;;19.20;99.90;;;;;;5050316;28;20511;-80
2022/08/07 07:35:49;;;;;;;6.65;2.80;;;19.50;99.90;;;;;;5042293;28;20043;-82
2022/08/07 07:38:33;;;;;;;3.95;3.38;;;19.70;99.90;;;;;;5049450;28;20507;-82
2022/08/07 07:41:20;;;;;;;4.65;3.17;;;19.80;99.90;;;;;;5047117;28;20120;-83
2022/08/07 07:44:06;;;;;;;3.80;2.58;;;19.80;99.90;;;;;;5050356;28;20039;-87
2022/08/07 07:46:52;;;;;;;4.85;3.15;;;20.00;99.90;;;;;;5050978;28;20348;-82
2022/08/07 07:49:37;;;;;;;5.65;3.33;;;20.10;99.90;;;;;;5052083;28;20032;-82
2022/08/07 07:52:24;;;;;;;5.55;3.03;;;20.30;99.90;;;;;;5049463;28;20064;-84
2022/08/07 07:55:09;;;;;;;7.43;3.38;;;20.60;99.90;;;;;;5051473;28;20139;-84
2022/08/07 07:57:55;;;;;;;5.53;2.95;;;20.70;99.90;;;;;;5051909;28;20071;-84
2022/08/07 08:00:42;;;;;;;3.92;2.72;;;21.00;99.20;;;;;;5052014;28;20036;-84
2022/08/07 08:03:29;;;;;;;4.38;3.10;;;21.20;99.30;;;;;;5048906;28;20613;-83
2022/08/07 08:06:13;;;;;;;3.97;2.88;;;21.40;98.80;;;;;;5055466;28;20056;-85
2022/08/07 08:09:01;;;;;;;5.28;3.55;;;21.60;97.00;;;;;;5046368;28;20036;-84
2022/08/07 08:11:45;;;;;;;5.68;3.05;;;21.80;96.10;;;;;;5050850;28;20146;-83
2022/08/07 08:14:31;;;;;;;5.00;3.20;;;22.00;96.40;;;;;;5046542;28;20075;-83
2022/08/07 08:17:17;;;;;;;3.47;2.95;;;22.20;94.60;;;;;;5050023;28;20039;-84
2022/08/07 08:20:05;;;;;;;5.75;3.45;;;22.00;94.20;;;;;;5048465;28;20091;-82
2022/08/07 08:29:03;;;;;;;6.18;3.40;;;22.00;92.80;;;;;;5053239;28;20094;-84
2022/08/07 08:31:49;;;;;;;6.07;3.67;;;22.00;92.00;;;;;;5072409;28;20075;-82
2022/08/07 08:34:37;;;;;;;6.82;3.10;;;21.80;92.40;;;;;;5070632;28;20075;-83
2022/08/07 08:37:24;;;;;;;4.53;3.05;;;21.70;92.80;;;;;;5071613;28;20109;-82
2022/08/07 08:40:30;;;;;;;3.85;3.17;;;21.60;93.50;;;;;;5070870;28;20052;-83
2022/08/07 08:43:36;;;;;;;6.15;2.80;;;21.80;93.30;;;;;;5057094;28;20106;-86
2022/08/07 08:46:28;;;;;;;5.25;2.60;;;22.00;92.00;;;;;;5048604;28;20071;-84
2022/08/07 08:49:55;;;;;;;6.60;2.72;;;22.10;91.40;;;;;;5055964;28;20040;-85
2022/08/07 08:52:50;;;;;;;5.00;2.60;;;22.20;91.10;;;;;;5055599;28;20044;-84
2022/08/07 08:55:55;;;;;;;5.70;2.53;;;22.10;90.00;;;;;;5054148;28;20198;-83
2022/08/07 08:58:46;;;;;;;4.50;3.17;;;22.00;90.20;;;;;;5054788;28;20087;-83
2022/08/07 09:01:45;;;;;;;4.75;3.13;;;22.00;90.00;;;;;;5054454;28;20036;-84
2022/08/07 09:04:49;;;;;;;5.60;2.90;;;21.90;89.10;;;;;;5054192;28;20047;-84
2022/08/07 09:08:08;;;;;;;3.70;2.70;;;21.90;86.70;;;;;;5051975;28;20044;-83
2022/08/07 09:11:03;;;;;;;3.60;2.47;;;21.90;88.20;;;;;;5053901;28;20555;-84
2022/08/07 09:13:57;;;;;;;3.67;2.63;;;22.10;90.10;;;;;;5054789;28;20052;-85
2022/08/07 09:17:26;;;;;;;3.40;2.30;;;22.40;89.10;;;;;;5053130;28;20032;-84
2022/08/07 09:20:56;;;;;;;4.45;2.55;;;22.60;85.40;;;;;;5054645;28;20388;-83
2022/08/07 09:24:00;;;;;;;4.80;2.83;;;22.70;86.60;;;;;;5052806;28;20509;-83
2022/08/07 09:27:00;;;;;;;4.60;2.65;;;22.90;86.00;;;;;;5049121;28;20036;-83
2022/08/07 09:29:56;;;;;;;3.80;2.53;;;22.90;84.00;;;;;;5054214;28;20040;-85
2022/08/07 09:33:09;;;;;;;6.00;2.90;;;22.70;83.00;;;;;;5049531;28;20297;-84
2022/08/07 09:36:00;;;;;;;3.10;2.13;;;22.70;84.40;;;;;;5053728;28;20063;-84
2022/08/07 09:39:14;;;;;;;3.15;2.15;;;22.80;84.50;;;;;;5039917;28;20616;-89
2022/08/07 09:42:49;;;;;;;3.28;2.08;;;23.00;83.30;;;;;;5053774;28;20076;-83
2022/08/07 09:45:56;;;;;;;4.35;2.28;;;22.90;79.10;;;;;;5041247;28;20106;-82
2022/08/07 09:48:59;;;;;;;3.60;2.22;;;22.80;78.80;;;;;;5054238;28;20401;-83
2022/08/07 09:51:58;;;;;;;4.00;2.13;;;23.10;80.80;;;;;;5068473;28;20098;-84
2022/08/07 09:54:53;;;;;;;4.30;2.10;;;23.40;81.00;;;;;;5061350;28;20126;-85
2022/08/07 09:58:14;;;;;;;4.45;2.30;;;23.60;78.00;;;;;;5041804;28;20175;-83
2022/08/07 10:01:31;;;;;;;3.55;2.38;;;23.80;78.50;;;;;;5053426;28;20088;-82
2022/08/07 10:04:43;;;;;;;4.63;2.63;;;23.80;76.50;;;;;;5076782;28;20397;-83
2022/08/07 10:07:55;;;;;;;3.97;2.55;;;23.70;78.10;;;;;;5057995;28;20039;-85
2022/08/07 10:11:01;;;;;;;4.15;2.65;;;23.80;78.50;;;;;;5050862;28;20055;-82
2022/08/07 10:14:02;;;;;;;3.80;2.53;;;23.90;79.10;;;;;;5047630;28;20178;-84
2022/08/07 10:16:59;;;;;;;5.07;2.10;;;23.90;72.10;;;;;;5044402;28;20268;-84
2022/08/07 10:20:24;;;;;;;3.72;2.10;;;23.70;75.70;;;;;;5054730;28;20039;-85
2022/08/07 10:23:20;;;;;;;3.47;2.47;;;23.70;77.30;;;;;;5054388;28;20036;-84
2022/08/07 10:26:29;;;;;;;5.55;2.58;;;23.80;74.80;;;;;;5052996;28;20032;-86
2022/08/07 10:29:16;;;;;;;6.28;2.50;;;23.90;72.20;;;;;;5058278;28;20043;-85
2022/08/07 10:32:21;;;;;;;3.65;2.13;;;23.80;73.00;;;;;;5073019;28;20120;-85
2022/08/07 10:35:26;;;;;;;4.28;2.25;;;23.90;72.80;;;;;;5072874;28;20509;-86
2022/08/07 10:38:25;;;;;;;4.00;2.30;;;24.00;74.90;;;;;;5071213;28;20094;-85
2022/08/07 10:41:19;;;;;;;3.67;2.08;;;24.20;74.70;;;;;;5065323;28;20111;-85
2022/08/07 10:44:23;;;;;;;4.90;2.08;;;24.40;73.80;;;;;;5065954;28;20036;-85
2022/08/07 10:47:41;;;;;;;3.40;2.17;;;24.70;70.50;;;;;;5073083;28;20082;-85
2022/08/07 10:50:30;;;;;;;5.05;2.42;;;24.90;68.00;;;;;;5064717;28;20117;-85
2022/08/07 10:53:42;;;;;;;2.72;1.80;;;25.00;70.40;;;;;;5067372;28;20048;-85
2022/08/07 10:57:09;;;;;;;2.70;1.60;;;24.90;68.60;;;;;;5057921;28;20512;-85
2022/08/07 11:00:06;;;;;;;2.50;1.70;;;25.00;68.50;;;;;;5064137;28;20081;-86
2022/08/07 11:03:09;;;;;;;3.13;1.75;;;25.10;68.40;;;;;;5041807;28;20454;-88
2022/08/07 11:06:01;;;;;;;2.80;1.60;;;25.20;64.50;;;;;;5072821;28;20059;-87
2022/08/07 11:08:45;;;;;;;2.60;1.67;;;;;;;;;;5071544;28;20044;-87
2022/08/07 11:11:35;;;;;;;2.75;1.50;;;25.30;63.80;;;;;;5073283;28;20057;-87
2022/08/07 11:14:39;;;;;;;5.03;1.70;;;25.40;65.20;;;;;;5072128;28;20097;-87
2022/08/07 11:17:25;;;;;;;;;;;25.40;65.80;;;;;;5058692;28;20083;-87
2022/08/07 11:20:22;;;;;;;4.72;1.77;;;25.50;63.70;;;;;;5073356;28;19961;-88
2022/08/07 11:23:16;;;;;;;2.35;1.60;;;25.60;65.00;;;;;;5064869;28;20139;-85
2022/08/07 11:26:04;;;;;;;;;;;25.70;64.10;;;;;;5066595;28;20098;-85
2022/08/07 11:29:07;;;;;;;2.75;1.45;;;25.60;61.90;;;;;;5061301;28;20387;-87
2022/08/07 11:32:13;;;;;;;2.80;1.60;;;25.60;60.30;;;;;;5057438;28;20063;-86
2022/08/07 11:35:01;;;;;;;3.75;1.48;;;25.60;58.60;;;;;;5058359;28;20035;-86
2022/08/07 11:37:51;;;;;;;2.85;1.75;;;25.50;60.10;;;;;;5072544;28;20446;-87
2022/08/07 11:40:48;;;;;;;2.80;1.50;;;25.40;61.80;;;;;;5065463;28;20044;-86
2022/08/07 11:43:41;;;;;;;2.63;1.40;;;25.40;56.70;;;;;;5065835;28;20116;-86
2022/08/07 11:47:12;;;;;;;2.10;1.40;;;25.60;58.90;;;;;;5053116;28;20098;-86
2022/08/07 11:50:35;;;;;;;2.55;1.58;;;25.70;57.10;;;;;;5061195;28;20096;-85
2022/08/07 11:53:43;;;;;;;2.50;1.48;;;25.70;56.90;;;;;;5071508;28;20039;-87
2022/08/07 11:56:54;;;;;;;2.80;1.40;;;25.60;57.10;;;;;;5059665;28;20448;-86
2022/08/07 12:00:00;;;;;;;3.17;1.80;;;25.60;54.90;;;;;;5052597;28;20036;-86
2022/08/07 12:03:22;;;;;;;2.67;1.60;;;25.50;58.90;;;;;;5063236;28;20090;-86
2022/08/07 12:06:17;;;;;;;2.67;1.60;;;25.60;58.40;;;;;;5051077;28;20090;-86
2022/08/07 12:09:24;;;;;;;3.65;1.63;;;25.50;59.70;;;;;;5069390;28;20068;-86
2022/08/07 12:12:11;;;;;;;3.17;1.40;;;25.60;55.50;;;;;;5056925;28;20106;-86
2022/08/07 12:15:10;;;;;;;2.20;1.58;;;25.60;57.40;;;;;;5071877;28;20086;-87
2022/08/07 12:18:07;;;;;;;4.90;1.90;;;25.90;56.50;;;;;;5051275;28;20039;-85
2022/08/07 12:21:18;;;;;;;2.35;1.52;;;26.00;58.30;;;;;;5065985;28;20072;-86
2022/08/07 12:24:29;;;;;;;2.53;1.38;;;25.90;63.70;;;;;;5065716;28;20035;-86
2022/08/07 12:27:17;;;;;;;3.72;1.63;;;25.00;57.80;;;;;;5071238;28;20085;-86
2022/08/07 12:30:05;;;;;;;3.30;2.50;;;24.60;59.60;;;;;;5071539;28;20484;-86
2022/08/07 12:32:49;;;;;;;2.95;1.77;;;;;;;;;;5071612;28;20051;-87
2022/08/07 12:35:34;;;;;;;3.22;1.40;;;25.00;60.50;;;;;;5063250;28;20035;-86
2022/08/07 12:38:20;;;;;;;3.72;1.60;;;25.20;59.00;;;;;;5053718;28;20083;-85
2022/08/07 12:41:07;;;;;;;2.42;1.38;;;25.30;67.00;;;;;;5070547;28;20044;-87
2022/08/07 12:43:52;;;;;;;2.97;1.60;;;;;;;;;;5071541;28;20039;-86
2022/08/07 12:47:23;;;;;;;3.08;1.30;;;25.50;57.50;;;;;;5055992;28;20120;-86
2022/08/07 12:50:17;;;;;;;3.25;1.30;;;25.60;55.70;;;;;;5066383;28;20502;-87
2022/08/07 12:53:06;;;;;;;2.05;1.30;;;25.80;56.80;;;;;;5059668;28;20044;-86
2022/08/07 12:56:23;;;;;;;2.53;1.20;;;25.90;56.90;;;;;;5044789;28;20035;-89
2022/08/07 12:59:15;;;;;;;3.90;1.42;;;26.10;55.90;;;;;;5070411;28;20136;-87
2022/08/07 13:02:18;;;;;;;3.97;1.40;;;26.00;61.70;;;;;;5071336;28;20042;-86
2022/08/07 13:05:03;;;;;;;3.45;1.67;;;;;;;;;;5058647;28;20156;-85
2022/08/07 13:08:15;;;;;;;2.40;1.63;;;25.70;56.50;;;;;;5059119;28;20036;-86
2022/08/07 13:11:39;;;;;;;2.50;1.40;;;25.80;56.90;;;;;;5070971;28;20091;-86
2022/08/07 13:15:00;;;;;;;2.45;1.50;;;25.70;56.20;;;;;;5050944;28;20036;-85
2022/08/07 13:18:13;;;;;;;3.40;1.63;;;25.90;63.00;;;;;;5065572;28;20060;-85
2022/08/07 13:21:28;;;;;;;2.78;1.60;;;25.70;57.30;;;;;;5054365;28;20456;-86
2022/08/07 13:24:25;;;;;;;2.40;1.40;;;25.30;56.40;;;;;;5053338;28;20036;-86
2022/08/07 13:27:16;;;;;;;2.65;1.30;;;24.90;59.20;;;;;;5062996;28;20040;-86
2022/08/07 13:30:12;;;;;;;2.25;1.48;;;25.00;59.60;;;;;;5065727;28;20098;-86
2022/08/07 13:32:56;;;;;;;2.35;1.30;;;24.90;58.00;;;;;;5069148;28;20115;-90
2022/08/07 13:35:48;;;;;;;3.55;1.77;;;24.60;58.50;;;;;;5075230;28;20099;-86
2022/08/07 13:38:33;;;;;;;2.40;1.30;;;24.60;60.00;;;;;;5074065;28;20039;-87
2022/08/07 13:41:41;;;;;;;3.15;1.50;;;24.80;61.40;;;;;;5073719;28;20037;-86
2022/08/07 13:44:31;;;;;;;2.78;1.65;;;25.10;61.90;;;;;;5057320;28;20112;-85
2022/08/07 13:47:17;;;;;;;3.15;2.13;;;25.30;61.80;;;;;;5074680;28;20082;-84
2022/08/07 13:50:03;;;;;;;3.10;1.83;;;25.60;61.40;;;;;;5059310;28;20116;-86
2022/08/07 13:52:48;;;;;;;2.65;1.50;;;25.80;61.40;;;;;;5063738;28;20052;-84
2022/08/07 13:55:34;;;;;;;2.10;1.50;;;26.00;60.70;;;;;;5055260;28;20056;-85
2022/08/07 14:01:25;;;;;;;3.55;1.60;;;25.70;61.00;;;;;;5045279;28;20124;-85
2022/08/07 14:04:13;;;;;;;3.20;1.60;;;25.80;59.50;;;;;;5068392;28;20052;-85
2022/08/07 14:06:58;;;;;;;3.22;1.67;;;25.80;60.10;;;;;;5068179;28;20047;-86
2022/08/07 14:09:43;;;;;;;3.58;1.77;;;25.90;61.60;;;;;;5074602;28;20039;-86
2022/08/07 14:12:58;;;;;;;3.22;1.85;;;26.00;60.90;;;;;;5070281;28;20514;-86
2022/08/07 14:15:50;;;;;;;3.63;1.80;;;26.10;60.60;;;;;;5070932;28;20035;-86
2022/08/07 14:18:43;;;;;;;4.10;2.38;;;26.10;61.70;;;;;;5074448;28;20036;-87
2022/08/07 14:21:40;;;;;;;3.57;1.73;;;26.20;60.60;;;;;;5049856;28;20078;-87
2022/08/07 14:24:40;;;;;;;3.05;2.03;;;26.00;60.70;;;;;;5068479;28;20043;-86
2022/08/07 14:27:47;;;;;;;4.80;2.20;;;25.80;60.70;;;;;;5067599;28;20116;-85
2022/08/07 14:30:32;;;;;;;5.10;2.08;;;25.60;58.70;;;;;;5073150;28;20039;-85
2022/08/07 14:33:17;;;;;;;4.80;2.47;;;25.50;60.70;;;;;;5058261;28;20047;-86
2022/08/07 14:36:03;;;;;;;3.40;2.10;;;25.40;62.60;;;;;;5062159;28;20063;-85
2022/08/07 14:38:48;;;;;;;3.28;2.08;;;25.40;61.60;;;;;;5046507;28;20035;-85
2022/08/07 14:41:34;;;;;;;2.95;2.03;;;25.20;63.00;;;;;;5059486;28;20040;-86
2022/08/07 14:44:20;;;;;;;3.20;2.03;;;25.20;63.80;;;;;;5073480;28;20043;-85
2022/08/07 14:47:06;;;;;;;4.78;2.35;;;25.20;62.80;;;;;;5068845;28;20039;-85
2022/08/07 14:49:52;;;;;;;4.43;2.00;;;25.30;64.30;;;;;;5066598;28;20048;-87
2022/08/07 14:52:38;;;;;;;5.05;2.00;;;25.50;63.90;;;;;;5065554;28;20043;-86
2022/08/07 14:55:29;;;;;;;4.50;2.05;;;25.30;63.00;;;;;;5053142;28;20132;-86
2022/08/07 14:58:15;;;;;;;3.00;1.90;;;24.90;62.60;;;;;;5052355;28;20094;-86
2022/08/07 15:01:01;;;;;;;5.55;2.38;;;24.60;63.60;;;;;;5048273;28;20035;-84